Date,TemperatureHighF,TemperatureAvgF,TemperatureLowF,DewpointHighF,DewpointAvgF,DewpointLowF,HumidityHigh,HumidityAvg,HumidityLow,PressureMaxIn,PressureMinIn,WindSpeedMaxMPH,WindSpeedAvgMPH,GustSpeedMaxMPH,PrecipitationSumIn
2013-1-1,48,46,42,47,40,29,97,84,50,30.09,29.91,3,0,11,0.55
2013-1-2,52,48,43,46,44,41,98,87,70,30.10,29.87,2,0,6,0.35
2013-1-3,46,42,31,43,39,27,95,90,82,30.25,30.05,2,0,7,0.01
2013-1-4,51,36,26,30,27,22,96,71,39,30.32,30.21,5,1,11,0.00
2013-1-5,46,37,25,35,26,22,93,68,42,30.36,30.20,4,1,10,0.01
2013-1-6,56,43,35,43,37,31,89,79,56,30.21,30.00,4,1,13,0.02
2013-1-7,53,38,28,32,29,26,95,73,39,30.38,30.17,3,0,9,0.00
2013-1-8,51,40,28,41,34,26,96,81,60,30.42,30.33,1,0,5,0.00
2013-1-9,61,52,45,54,48,40,94,86,78,30.41,30.33,2,0,6,0.00
2013-1-10,66,54,45,54,50,44,98,85,64,30.44,30.30,3,0,9,0.05
2013-1-11,56,50,49,53,49,48,98,96,90,30.30,30.11,1,0,5,0.76
2013-1-12,72,60,50,65,57,49,99,91,65,30.13,30.03,5,1,14,0.16
2013-1-13,67,59,53,63,57,52,99,94,85,30.09,29.99,5,1,14,0.00
2013-1-14,65,62,57,64,61,56,99,98,96,30.06,29.99,4,1,12,0.71
2013-1-15,62,51,45,61,50,44,98,97,94,30.08,29.99,2,0,7,0.83
2013-1-16,51,47,44,50,46,43,98,98,97,30.00,29.93,1,0,4,0.53
2013-1-17,52,48,37,52,47,35,99,97,93,30.14,29.70,4,1,12,1.81
2013-1-18,53,40,32,36,29,22,92,68,31,30.47,30.14,4,1,10,0.31
2013-1-19,53,38,26,35,29,25,97,74,37,30.46,30.16,6,1,12,0.01
2013-1-20,64,45,31,39,33,28,93,68,32,30.17,29.98,4,1,11,0.01
2013-1-21,61,44,30,37,27,16,97,59,25,30.04,29.92,7,2,23,0.00
2013-1-22,44,34,26,24,17,11,78,54,28,30.22,29.98,7,0,12,0.00
2013-1-23,51,35,22,30,22,14,81,60,38,30.32,30.06,7,1,14,0.00
2013-1-24,48,39,28,34,22,7,91,55,25,30.45,29.97,4,1,13,0.00
2013-1-25,29,26,23,26,18,8,93,73,42,30.47,30.10,3,0,10,0.00
2013-1-26,52,36,26,38,30,25,98,83,44,30.31,30.08,3,0,6,0.08
2013-1-27,44,36,28,35,30,26,94,81,63,30.52,30.31,2,0,10,0.01
2013-1-28,53,44,39,46,38,32,88,78,69,30.44,30.23,5,1,12,0.01
2013-1-29,68,55,39,59,51,37,98,88,73,30.23,29.96,6,1,15,0.01
2013-1-30,67,62,46,63,58,44,96,89,82,29.97,29.41,11,4,26,1.59
2013-1-31,49,43,35,44,25,19,92,51,32,30.02,29.51,9,4,22,1.43
2013-2-1,42,36,26,29,18,6,76,51,26,30.32,29.93,9,2,25,0.00
2013-2-2,44,32,21,36,22,12,95,72,29,30.35,30.04,7,2,20,0.05
2013-2-3,52,40,30,38,29,21,94,69,31,30.04,29.86,9,3,23,0.05
2013-2-4,50,37,27,31,26,23,86,65,36,30.11,29.99,5,1,10,0.00
2013-2-5,62,46,32,44,35,28,90,70,37,29.99,29.86,8,2,20,0.00
2013-2-6,65,47,33,43,34,27,97,67,25,30.15,29.96,5,0,8,0.00
2013-2-7,48,44,41,42,36,27,95,75,48,30.18,29.95,3,0,10,0.56
2013-2-8,58,46,37,49,40,26,97,79,34,30.10,29.86,7,1,18,0.36
2013-2-9,61,44,32,34,26,18,84,55,23,30.28,30.09,5,1,12,0.00
2013-2-10,56,45,36,46,35,27,96,71,39,30.37,30.14,2,0,7,0.43
2013-2-11,56,50,46,55,49,45,98,96,93,30.14,29.93,5,1,14,0.66
2013-2-12,58,48,38,46,39,27,96,76,31,30.06,29.84,2,0,7,0.17
2013-2-13,53,44,35,46,42,32,96,91,64,29.89,29.63,7,1,17,0.18
2013-2-14,53,39,29,38,33,28,97,80,49,30.03,29.84,6,1,16,0.01
2013-2-15,61,45,28,41,33,27,97,68,35,30.07,29.90,10,1,17,0.01
2013-2-16,42,36,28,33,26,12,90,66,40,30.01,29.81,5,1,13,0.03
2013-2-17,47,31,19,20,14,6,82,53,19,30.24,30.01,7,1,14,0.01
2013-2-18,55,38,23,31,23,19,88,61,30,30.35,30.19,6,1,15,0.00
2013-2-19,53,42,32,45,33,18,95,74,32,30.18,29.86,6,1,16,0.27
2013-2-20,55,39,25,33,22,15,89,57,23,30.10,30.01,4,0,10,0.01
2013-2-21,58,42,27,40,24,15,92,56,20,30.19,30.04,4,0,7,0.12
2013-2-22,41,39,37,39,37,35,96,94,92,30.22,30.08,1,0,7,0.54
2013-2-23,44,41,37,43,40,36,97,96,93,30.10,29.82,1,0,5,0.44
2013-2-24,65,49,38,45,40,34,98,76,36,29.96,29.83,4,0,11,0.01
2013-2-25,49,42,36,34,29,26,86,63,46,30.11,29.95,3,1,12,0.01
2013-2-26,41,37,33,40,35,31,97,95,82,30.01,29.58,4,1,14,1.24
2013-2-27,57,45,32,40,36,30,97,73,51,29.78,29.64,7,2,18,0.02
2013-2-28,50,42,31,36,28,25,88,61,41,29.88,29.70,8,2,19,0.00
2013-3-1,49,38,27,32,28,25,94,70,47,29.92,29.83,4,1,11,0.00
2013-3-2,45,39,33,33,29,21,90,69,49,29.91,29.81,4,1,11,0.00
2013-3-3,45,34,25,23,19,17,81,57,36,30.00,29.88,5,1,11,0.00
2013-3-4,55,37,22,32,21,16,86,57,24,30.14,30.00,5,1,12,0.00
2013-3-5,48,43,36,45,38,30,96,84,63,30.04,29.62,7,1,23,0.54
2013-3-6,47,24,32,32,-24,-100,64,34,44,30.09,29.66,7,2,26,0.50
2013-3-7,-200,0,200,-100,-100,-100,0,0,100,30.21,30.06,5,1,11,0.02
2013-3-8,-200,0,200,-100,-100,-100,0,0,100,30.24,30.11,5,1,11,0.00
2013-3-9,-200,0,200,-100,-100,-100,0,0,100,30.28,30.16,4,0,9,0.00
2013-3-10,-200,0,200,-100,-100,-100,0,0,100,30.22,30.09,4,1,10,0.00
2013-3-11,-200,0,200,-100,-100,-100,0,0,100,30.11,29.77,8,1,20,0.99
2013-3-12,-200,0,200,-100,-100,-100,0,0,100,29.95,29.68,4,1,11,1.50
2013-3-13,-200,0,200,-100,-100,-100,0,0,100,30.10,29.94,8,2,24,0.01
2013-3-14,-200,0,200,-100,-100,-100,0,0,100,30.24,30.09,5,1,13,0.00
2013-3-15,-200,0,200,-100,-100,-100,0,0,100,30.12,29.84,8,2,19,0.00
2013-3-16,-200,0,200,-100,-100,-100,0,0,100,29.87,29.70,9,3,25,0.00
2013-3-17,-200,0,200,-100,-100,-100,0,0,100,29.98,29.81,7,2,16,0.00
2013-3-18,-200,0,200,-100,-100,-100,0,0,100,30.03,29.81,3,1,9,0.49
2013-3-19,-200,0,200,-100,-100,-100,0,0,100,30.00,29.78,8,1,25,0.46
2013-3-20,64,20,39,26,-54,-100,58,12,14,30.04,29.75,8,2,17,0.01
2013-3-21,49,37,26,30,20,12,86,53,26,29.93,29.77,5,1,12,0.01
2013-3-22,50,37,26,29,21,17,81,55,30,30.06,29.93,7,1,14,0.00
2013-3-23,52,44,40,46,39,28,95,81,56,30.01,29.85,3,0,9,0.03
2013-3-24,46,43,41,44,42,39,96,93,86,29.89,29.52,3,1,13,0.99
2013-3-25,45,40,35,40,27,19,96,62,39,29.90,29.52,12,3,26,0.03
2013-3-26,49,37,26,27,24,21,90,61,36,30.18,29.90,4,1,17,0.00
2013-3-27,56,39,26,30,25,21,91,61,27,30.25,30.13,5,1,11,0.00
2013-3-28,61,42,27,30,25,16,92,57,18,30.29,30.14,6,1,11,0.00
2013-3-29,61,44,28,43,30,24,91,61,26,30.32,30.18,6,1,17,0.01
2013-3-30,67,53,43,46,42,38,96,71,35,30.19,29.99,5,1,11,0.03
2013-3-31,69,57,50,58,51,-100,98,86,60,30.01,29.79,8,2,23,0.57
2013-4-1,73,60,46,54,43,34,97,60,28,29.92,29.79,8,2,21,0.03
2013-4-2,71,54,38,40,32,24,87,50,19,30.09,29.92,6,1,16,0.01
2013-4-3,60,53,46,39,27,19,64,37,25,30.20,30.05,4,1,12,0.00
2013-4-4,50,43,38,38,34,26,94,73,41,30.20,29.95,4,0,12,0.68
2013-4-5,66,49,34,45,38,28,98,72,24,30.02,29.88,5,1,10,0.07
2013-4-6,70,54,38,44,37,33,94,60,25,30.17,30.02,5,1,15,0.00
2013-4-7,71,58,42,50,44,39,94,64,38,30.18,30.05,6,2,17,0.00
2013-4-8,76,62,49,57,52,46,96,71,44,30.11,30.00,6,1,22,0.00
2013-4-9,82,67,52,59,55,50,95,68,40,30.14,30.03,7,2,18,0.00
2013-4-10,84,69,56,61,57,53,94,69,39,30.05,29.88,7,2,16,0.00
2013-4-11,80,69,59,66,60,55,90,75,50,29.90,29.64,6,2,16,0.08
2013-4-12,78,68,54,66,53,37,97,66,26,29.76,29.58,12,3,28,1.04
2013-4-13,78,60,43,49,42,37,94,58,24,29.96,29.76,6,1,11,0.10
2013-4-14,71,59,46,54,46,39,91,66,34,30.03,29.92,5,1,16,0.02
2013-4-15,69,61,54,59,56,53,97,86,67,30.14,29.91,3,0,9,0.30
2013-4-16,79,67,58,63,59,56,94,78,48,30.23,30.11,3,0,9,0.02
2013-4-17,81,66,59,65,61,57,97,86,55,30.18,30.06,3,0,9,0.30
2013-4-18,80,67,58,65,61,57,99,83,51,30.09,29.90,6,0,13,0.07
2013-4-19,69,63,51,65,60,49,96,92,81,29.90,29.70,7,2,19,1.25
2013-4-20,65,51,37,49,38,28,94,65,31,30.22,29.87,4,1,12,0.05
2013-4-21,65,53,39,46,38,31,94,62,33,30.37,30.22,5,1,13,0.00
2013-4-22,65,53,43,45,40,37,88,65,38,30.36,30.16,4,1,14,0.00
2013-4-23,73,56,39,53,43,36,94,66,36,30.23,30.05,4,1,10,0.00
2013-4-24,74,61,48,60,54,46,97,80,55,30.09,29.96,8,2,19,0.00
2013-4-25,75,61,47,58,43,32,96,57,22,30.22,30.01,4,1,11,0.00
2013-4-26,73,58,43,48,39,34,87,55,27,30.37,30.22,4,1,14,0.00
2013-4-27,59,55,53,56,52,47,96,89,69,30.29,30.19,2,0,7,0.47
2013-4-28,53,52,50,52,50,-100,98,97,96,30.21,30.00,1,0,6,1.75
2013-4-29,74,61,53,61,56,52,99,87,55,30.02,29.88,4,1,12,0.50
2013-4-30,75,63,51,62,57,49,98,84,58,30.11,29.92,5,0,12,0.01
2013-5-1,68,61,54,59,56,53,96,82,66,30.20,30.11,3,0,10,0.00
2013-5-2,62,59,56,58,56,54,95,90,83,30.22,30.16,3,0,10,0.02
2013-5-3,64,58,54,57,55,53,96,90,75,30.16,30.02,3,1,11,0.11
2013-5-4,57,53,50,54,49,44,96,85,71,30.02,29.90,4,1,15,0.73
2013-5-5,53,51,48,52,50,47,98,96,96,29.93,29.78,3,1,16,2.70
2013-5-6,64,57,48,55,51,46,99,82,56,29.87,29.76,5,1,15,0.50
2013-5-7,71,55,42,56,48,41,98,80,44,29.91,29.81,4,1,9,0.11
2013-5-8,75,61,49,60,54,48,98,80,52,29.98,29.87,5,1,19,0.11
2013-5-9,80,63,51,66,57,50,98,83,42,30.03,29.95,3,0,8,0.05
2013-5-10,80,66,55,65,57,-100,99,80,53,30.03,29.89,6,1,17,0.03
2013-5-11,77,67,58,65,61,57,97,82,61,29.91,29.76,5,1,15,0.07
2013-5-12,74,61,49,59,47,-100,98,67,28,30.00,29.81,5,1,15,0.07
2013-5-13,72,56,41,43,37,30,92,54,23,30.14,30.00,4,1,11,0.00
2013-5-14,76,59,42,54,44,36,93,60,33,30.21,30.03,5,1,14,0.00
2013-5-15,89,72,55,64,58,52,95,65,40,30.04,29.88,7,1,17,0.00
2013-5-16,83,65,59,64,38,-100,89,70,46,29.97,29.90,4,1,15,0.00
2013-5-17,85,71,59,67,57,-100,97,73,40,30.03,29.94,5,1,13,0.00
2013-5-18,75,67,63,69,64,60,98,91,79,30.06,29.98,4,0,7,1.03
2013-5-19,74,69,64,68,66,63,98,91,78,30.05,29.95,3,0,8,0.43
2013-5-20,83,70,62,72,66,61,98,86,60,30.05,29.95,3,0,8,0.03
2013-5-21,89,74,64,73,67,63,99,81,49,29.98,29.85,2,0,8,0.00
2013-5-22,86,72,62,71,66,60,97,84,58,29.93,29.78,4,1,12,0.73
2013-5-23,84,70,62,69,63,56,98,81,48,29.89,29.77,6,1,15,0.99
2013-5-24,74,64,55,60,50,41,96,65,31,30.15,29.84,4,1,11,0.01
2013-5-25,78,62,47,55,46,38,91,59,28,30.25,30.12,6,1,12,0.00
2013-5-26,78,63,53,57,49,44,85,63,37,30.24,30.11,4,1,9,0.00
2013-5-27,84,68,53,63,56,51,97,70,41,30.21,30.07,6,1,11,0.00
2013-5-28,85,72,62,65,61,59,93,71,44,30.16,30.07,5,1,13,0.00
2013-5-29,87,73,61,66,62,59,96,72,41,30.17,30.09,4,1,9,0.00
2013-5-30,84,72,62,70,63,61,96,76,47,30.21,30.09,4,1,8,0.00
2013-5-31,87,74,65,67,65,63,95,74,47,30.16,30.03,5,1,13,0.00
2013-6-1,87,75,66,68,66,64,95,75,51,30.06,29.94,6,1,14,0.01
2013-6-2,80,71,67,72,66,-100,97,87,75,29.97,29.84,3,1,11,0.91
2013-6-3,81,72,65,73,68,64,98,89,71,29.89,29.79,2,0,6,0.54
2013-6-4,84,72,62,71,66,61,99,84,58,30.00,29.88,3,0,8,0.54
2013-6-5,83,72,67,71,67,65,97,86,68,30.02,29.88,3,0,9,0.34
2013-6-6,76,69,64,71,67,63,98,94,82,29.92,29.74,3,0,10,0.73
2013-6-7,82,70,66,75,68,65,98,92,73,29.77,29.61,5,1,11,0.40
2013-6-8,84,73,64,71,67,63,99,84,61,30.02,29.76,5,1,10,0.11
2013-6-9,83,72,66,74,69,65,98,90,68,30.07,29.98,3,0,10,0.52
2013-6-10,78,71,69,72,69,66,97,92,75,29.99,29.85,5,2,17,1.20
2013-6-11,89,76,68,73,68,61,97,79,40,29.93,29.86,5,1,11,0.03
2013-6-12,90,76,64,78,70,63,98,83,52,29.96,29.85,4,0,11,0.02
2013-6-13,93,78,68,75,70,67,96,80,44,29.85,29.64,8,1,20,0.17
2013-6-14,85,72,58,67,61,56,98,71,40,29.97,29.72,3,1,11,0.18
2013-6-15,85,72,58,66,60,56,96,71,45,30.08,29.97,4,1,11,0.01
2013-6-16,87,74,62,69,65,60,96,76,47,30.09,29.95,6,1,13,0.00
2013-6-17,82,74,67,75,70,66,96,88,73,29.98,29.87,4,1,15,3.20
2013-6-18,83,73,67,75,70,65,98,90,70,29.91,29.72,7,1,18,3.20
2013-6-19,84,73,66,71,66,64,95,80,57,30.04,29.83,2,0,8,0.14
2013-6-20,85,71,64,69,66,63,98,84,56,30.15,30.03,2,0,9,0.00
2013-6-22,88,85,71,68,63,60,84,50,40,30.16,30.05,3,1,8,0.00
2013-6-23,89,75,66,76,68,64,96,82,53,30.14,30.03,3,0,10,0.01
2013-6-24,90,77,68,74,70,67,98,81,55,30.15,30.02,6,1,12,0.03
2013-6-25,91,76,69,76,70,67,97,84,50,30.08,29.95,4,1,15,0.09
2013-6-26,90,76,69,77,71,68,98,87,59,29.98,29.85,5,1,10,0.12
2013-6-27,91,77,69,78,72,68,98,86,57,29.89,29.65,6,1,15,0.41
2013-6-28,95,79,67,78,71,66,99,81,50,29.73,29.53,4,1,10,0.31
2013-6-29,90,78,67,72,68,65,98,75,45,29.64,29.55,5,1,12,0.00
2013-6-30,88,75,69,73,69,67,96,83,51,29.76,29.63,3,0,9,0.00
2013-7-1,84,73,68,72,69,66,97,86,62,29.89,29.74,3,0,11,0.42
2013-7-2,81,74,68,74,70,67,98,89,73,30.06,29.88,4,1,10,0.22
2013-7-3,82,73,65,73,70,64,98,91,74,30.15,30.03,5,0,12,1.26
2013-7-4,76,69,65,75,68,64,99,97,93,30.16,30.07,3,0,8,2.63
2013-7-5,86,72,68,75,69,67,99,92,62,30.18,30.10,4,0,17,0.93
2013-7-6,86,74,69,76,71,68,99,90,63,30.15,30.04,4,1,11,0.50
2013-7-7,84,76,70,74,72,69,98,88,71,30.10,30.01,5,1,14,0.27
2013-7-8,88,75,70,78,70,-100,98,89,63,30.12,30.03,3,0,6,0.15
2013-7-9,90,77,69,77,72,68,98,85,59,30.12,29.98,6,1,12,0.72
2013-7-10,88,75,70,77,70,-100,98,88,65,30.06,29.89,3,0,7,0.66
2013-7-11,82,75,71,76,72,70,98,93,79,29.92,29.80,3,0,6,0.03
2013-7-12,87,74,66,75,70,64,98,89,62,29.93,29.80,2,0,8,1.06
2013-7-13,78,70,64,73,68,63,98,93,80,30.04,29.92,2,0,7,1.07
2013-7-14,78,72,69,73,70,68,98,94,84,30.20,30.03,3,0,11,0.63
2013-7-15,86,75,69,75,71,68,99,89,64,30.26,30.17,3,0,8,0.26
2013-7-16,91,78,69,78,72,68,99,85,56,30.24,30.15,3,0,8,0.26
2013-7-17,94,78,69,81,72,68,98,86,53,30.19,30.05,2,0,7,0.34
2013-7-18,92,77,68,78,72,67,99,85,53,30.13,30.00,2,0,7,0.34
2013-7-19,92,79,70,76,72,69,98,82,54,30.05,29.91,5,1,10,0.01
2013-7-20,89,76,71,76,71,-100,97,89,64,29.97,29.88,4,1,11,0.68
2013-7-21,88,76,70,76,72,69,99,89,63,29.94,29.86,3,0,10,1.02
2013-7-22,86,76,70,76,71,69,98,87,67,29.94,29.78,6,1,17,0.07
2013-7-23,91,78,69,76,71,68,97,82,52,29.83,29.71,4,1,10,0.02
2013-7-24,92,77,68,76,71,67,99,83,52,29.77,29.69,2,0,10,0.00
2013-7-25,88,74,66,75,68,64,99,83,55,29.95,29.77,4,0,9,0.01
2013-7-26,88,74,65,74,69,64,98,85,60,30.03,29.93,2,0,13,0.01
2013-7-27,83,75,70,74,71,69,99,90,68,29.96,29.83,4,1,11,1.89
2013-7-28,88,75,67,72,69,66,98,84,55,29.94,29.84,4,1,11,0.56
2013-7-29,89,73,63,73,67,62,98,83,49,30.09,29.94,3,0,7,0.00
2013-7-30,87,74,62,75,67,60,97,81,59,30.15,30.06,3,0,8,0.00
2013-7-31,79,72,70,73,70,68,98,94,81,30.10,29.91,1,0,6,0.42
2013-8-1,87,74,71,76,72,69,98,92,63,29.93,29.83,3,0,8,0.52
2013-8-2,89,75,66,77,70,65,99,84,54,29.97,29.85,3,0,8,0.31
2013-8-3,89,78,70,75,71,66,98,82,50,29.96,29.89,4,0,9,0.00
2013-8-4,91,77,67,77,70,64,98,82,51,29.96,29.87,2,0,7,0.00
2013-8-5,88,74,65,74,68,63,96,82,55,30.01,29.90,3,0,7,0.00
2013-8-6,85,75,70,75,71,68,98,89,72,29.99,29.89,4,0,10,1.11
2013-8-7,77,73,71,75,72,70,98,96,91,30.01,29.94,3,0,6,0.56
2013-8-8,83,76,70,76,72,69,99,90,75,30.01,29.95,5,1,10,0.10
2013-8-9,90,76,71,77,73,70,99,91,65,30.01,29.95,6,1,12,0.46
2013-8-10,91,77,70,78,74,69,99,90,63,30.05,29.98,4,0,14,0.17
2013-8-11,91,75,68,77,72,67,99,90,59,30.07,29.99,4,0,9,0.37
2013-8-12,92,75,69,81,72,68,99,91,58,30.03,29.89,3,0,6,0.61
2013-8-13,89,76,70,77,71,-100,98,86,60,29.91,29.75,6,1,13,0.15
2013-8-14,80,69,66,71,64,-100,98,89,65,30.00,29.80,2,0,7,0.16
2013-8-15,73,62,62,66,49,-100,96,80,64,30.08,29.99,2,0,11,0.01
2013-8-16,75,64,61,64,58,-100,96,86,64,30.11,30.02,3,0,9,0.00
2013-8-17,69,65,62,64,62,59,97,90,78,30.13,30.07,2,0,9,0.14
2013-8-18,74,67,64,71,64,-100,98,93,82,30.17,30.09,1,0,4,0.37
2013-8-19,76,66,66,72,57,-100,99,94,81,30.14,30.03,1,0,5,1.46
2013-8-20,81,70,65,73,67,-100,99,92,74,30.14,30.05,1,0,6,0.01
2013-8-21,81,72,68,74,70,67,99,95,76,30.18,30.06,2,0,4,0.30
2013-8-22,89,74,67,76,71,66,99,90,58,30.10,29.97,4,0,10,0.91
2013-8-23,89,74,66,77,70,65,99,88,58,30.01,29.90,2,0,8,0.56
2013-8-24,84,71,63,68,65,61,98,83,52,30.23,30.00,2,0,10,0.56
2013-8-25,82,68,57,66,59,-100,99,80,48,30.33,30.22,2,0,10,0.01
2013-8-26,87,70,58,70,64,57,98,81,48,30.27,30.07,3,0,7,0.00
2013-8-27,92,72,62,72,66,61,99,85,47,30.10,29.96,2,0,8,0.01
2013-8-28,93,84,73,77,74,71,94,72,54,29.96,29.88,5,1,10,0.00
2013-8-29,95,79,69,80,72,68,98,83,53,29.90,29.82,2,0,7,0.00
2013-8-30,85,76,72,75,72,70,97,90,70,29.98,29.87,2,0,6,0.05
2013-8-31,90,75,70,78,72,69,99,90,63,29.91,29.83,4,0,9,0.49
2013-9-1,88,75,69,77,70,-100,99,88,63,29.85,29.75,6,1,13,0.28
2013-9-2,87,75,70,77,72,68,99,90,68,29.85,29.76,3,0,7,0.30
2013-9-3,89,74,66,76,69,64,98,85,54,29.91,29.77,2,0,11,0.05
2013-9-4,89,74,65,73,67,64,99,81,50,30.03,29.91,3,0,8,0.01
2013-9-5,91,74,65,75,68,63,98,83,48,30.06,29.98,3,0,8,0.00
2013-9-6,86,71,62,68,64,61,98,79,47,30.12,30.01,2,0,12,0.00
2013-9-7,86,72,62,71,65,61,98,81,53,30.08,29.93,4,0,11,0.00
2013-9-8,89,73,64,74,67,-100,99,85,51,29.94,29.87,2,0,6,0.00
2013-9-9,89,75,65,74,69,64,99,83,55,30.07,29.93,3,0,7,0.01
2013-9-10,91,75,66,75,69,65,98,83,52,30.17,30.07,2,0,7,0.01
2013-9-11,91,76,65,73,69,64,99,82,49,30.16,30.03,4,0,8,0.00
2013-9-12,92,75,68,74,70,67,98,87,48,30.03,29.80,3,0,14,0.09
2013-9-13,88,72,62,69,64,57,99,79,44,29.83,29.73,3,0,8,0.05
2013-9-14,80,65,54,63,56,52,96,75,45,30.06,29.83,3,0,9,0.00
2013-9-15,82,64,58,69,59,-100,97,86,57,30.15,30.06,2,0,6,0.00
2013-9-16,88,72,63,72,65,62,98,81,46,30.08,29.99,3,0,5,0.00
2013-9-17,74,67,63,65,60,56,92,78,62,30.23,30.08,2,0,8,0.00
2013-9-18,63,61,59,60,57,55,92,87,83,30.23,30.13,0,0,3,0.00
2013-9-19,82,69,58,71,64,57,98,85,58,30.14,30.02,3,0,7,0.00
2013-9-20,87,72,62,71,65,61,99,82,51,30.03,29.86,5,1,10,0.00
2013-9-21,71,67,63,69,66,62,97,96,92,29.87,29.61,3,0,10,1.58
2013-9-22,80,65,56,66,59,-100,99,85,55,29.85,29.68,2,0,7,0.95
2013-9-23,79,65,58,64,59,56,95,83,53,30.00,29.85,2,0,8,0.01
2013-9-24,75,65,57,67,61,56,98,87,66,30.02,29.88,0,0,0,0.00
2013-9-25,65,63,61,64,62,60,98,96,93,29.89,29.81,0,0,0,0.81
2013-9-26,77,65,57,65,60,55,99,86,54,29.98,29.83,0,0,0,0.01
2013-9-27,79,64,52,63,57,51,98,82,54,30.12,29.98,0,0,0,0.01
2013-9-28,74,63,55,61,57,54,98,82,57,30.20,30.09,0,0,0,0.01
2013-9-29,75,61,52,61,54,-100,98,84,54,30.14,29.99,0,0,0,0.00
2013-9-30,80,65,54,63,58,53,98,82,48,30.05,29.95,0,0,0,0.00
2013-10-1,65,63,59,61,60,58,95,90,87,30.06,30.03,0,0,0,0.01
2013-10-2,85,68,57,68,62,55,98,81,46,30.10,30.01,0,0,0,0.01
2013-10-3,85,70,58,67,62,57,98,80,46,30.08,30.01,4,0,10,0.00
2013-10-4,87,70,58,70,63,57,98,82,48,30.09,30.02,0,0,0,0.00
2013-10-5,88,71,59,71,64,58,98,82,47,30.08,29.97,0,0,0,0.00
2013-10-6,85,70,60,69,64,59,98,83,53,30.00,29.81,4,0,9,0.01
2013-10-7,75,66,55,69,63,53,98,90,71,29.93,29.74,4,0,8,1.37
2013-10-8,71,61,54,57,53,48,96,78,54,30.15,29.93,3,0,13,0.01
2013-10-9,76,59,48,55,49,45,96,73,39,30.18,30.06,3,0,10,0.00
2013-10-10,81,61,46,61,53,45,98,78,40,30.10,29.95,2,0,9,0.00
2013-10-11,83,65,54,61,56,52,98,76,35,29.97,29.87,0,0,0,0.00
2013-10-12,80,64,54,67,59,52,98,85,51,30.03,29.91,0,0,0,0.00
2013-10-13,77,66,62,67,62,-100,97,88,65,30.15,30.03,0,0,0,0.09
2013-10-14,71,65,61,64,62,60,98,91,76,30.17,30.09,0,0,6,0.09
2013-10-15,69,62,55,61,58,54,97,87,71,30.14,30.01,0,0,0,0.00
2013-10-16,72,61,52,62,56,51,98,86,63,30.03,29.92,0,0,0,0.00
2013-10-17,67,63,61,64,62,59,97,94,84,29.93,29.81,2,0,9,0.13
2013-10-18,73,61,51,63,57,50,98,86,57,29.97,29.85,3,0,7,0.01
2013-10-19,63,59,52,59,57,51,98,93,79,29.91,29.81,4,0,10,0.01
2013-10-20,69,54,43,53,46,-100,98,80,45,30.05,29.89,3,0,7,0.01
2013-10-21,69,54,43,56,49,42,98,85,59,30.11,29.96,3,0,12,0.01
2013-10-22,69,59,54,57,55,52,97,85,56,29.98,29.76,3,1,12,0.01
2013-10-23,66,53,43,53,41,32,98,70,30,30.01,29.70,7,1,17,0.01
2013-10-24,63,46,34,46,38,32,95,76,43,30.14,30.00,7,1,15,0.00
2013-10-25,57,46,35,40,32,27,89,60,34,30.34,30.13,5,1,12,0.00
2013-10-26,58,43,29,41,34,27,97,74,42,30.34,30.07,7,1,14,0.00
2013-10-27,70,52,38,55,44,-100,98,78,49,30.10,30.02,5,0,10,0.00
2013-10-28,69,56,49,58,51,-100,98,87,60,30.21,30.06,4,0,11,0.01
2013-10-29,75,60,49,57,53,48,98,81,47,30.29,30.19,2,0,5,0.01
2013-10-30,79,63,53,61,56,51,98,80,50,30.24,30.11,4,0,11,0.00
2013-10-31,70,62,56,63,58,55,97,88,71,30.13,29.85,0,0,2,0.00
2013-11-1,72,64,58,63,61,56,96,89,72,29.85,29.62,5,1,14,0.17
2013-11-2,69,55,44,57,47,40,98,78,36,29.96,29.69,6,1,16,0.03
2013-11-3,66,49,39,44,38,-100,97,72,30,30.32,29.96,3,0,12,0.01
2013-11-4,60,47,37,40,37,32,96,71,38,30.48,30.32,3,0,12,0.01
2013-11-5,62,46,36,46,39,32,93,76,48,30.51,30.38,2,0,12,0.00
2013-11-6,70,57,49,56,51,46,94,82,58,30.39,30.09,3,0,7,0.00
2013-11-7,68,54,44,60,46,34,98,78,43,30.10,29.93,4,1,8,0.04
2013-11-8,63,48,36,35,29,20,83,51,20,30.27,30.10,3,1,11,0.04
2013-11-9,59,43,31,43,32,-100,95,71,35,30.35,30.19,4,0,12,0.01
2013-11-10,75,55,39,45,39,35,95,62,25,30.21,30.09,4,0,7,0.01
2013-11-11,64,49,37,38,33,27,86,59,26,30.31,30.13,4,0,9,0.00
2013-11-12,66,44,31,42,32,15,92,67,31,30.42,30.04,5,1,16,0.00
2013-11-13,53,37,27,26,18,12,81,50,20,30.52,30.41,3,1,9,0.00
2013-11-14,60,39,24,29,24,19,92,62,21,30.46,30.30,5,1,14,0.00
2013-11-15,57,44,30,47,35,26,96,73,38,30.32,30.16,1,0,3,0.17
2013-11-16,60,52,48,56,49,-100,98,93,84,30.24,30.15,1,0,4,0.18
2013-11-17,62,57,53,59,56,52,98,96,90,30.17,29.88,1,0,4,0.76
2013-11-18,75,61,47,63,53,34,99,79,32,29.95,29.81,5,1,12,0.51
2013-11-19,59,49,40,36,31,25,78,53,30,30.20,29.93,3,1,12,0.01
2013-11-20,54,44,36,36,32,29,81,63,39,30.40,30.19,3,1,11,0.00
2013-11-21,50,47,45,48,41,32,96,80,59,30.42,30.34,2,0,10,0.07
2013-11-22,60,54,49,58,53,48,98,96,91,30.36,30.10,3,0,8,0.05
2013-11-23,59,52,36,56,44,-100,98,78,46,30.16,30.04,2,0,7,0.01
2013-11-24,45,36,26,31,17,10,81,49,25,30.50,30.17,5,1,15,0.00
2013-11-25,41,32,23,20,16,9,85,54,29,30.53,30.30,2,0,7,0.00
2013-11-26,44,38,32,43,36,16,98,94,41,30.31,29.61,2,0,6,3.67
2013-11-27,45,38,27,44,31,20,99,77,46,30.18,29.52,4,1,14,0.28
2013-11-28,49,32,22,31,23,18,92,72,38,30.46,30.18,3,0,8,0.01
2013-11-29,57,38,25,34,27,23,97,71,29,30.56,30.43,4,0,9,0.00
2013-11-30,48,36,29,30,25,-100,88,69,39,30.60,30.36,3,0,10,0.00
2013-12-1,57,40,30,40,32,27,92,76,45,30.35,29.99,3,0,8,0.00
2013-12-2,60,43,31,45,38,29,98,83,49,30.00,29.79,5,0,11,0.00
2013-12-3,57,51,47,52,49,45,98,93,77,29.91,29.82,3,0,10,0.06
2013-12-4,58,54,51,58,54,50,99,98,97,30.03,29.90,0,0,6,0.07
2013-12-5,67,61,57,67,61,57,100,100,99,30.05,29.94,7,1,17,0.37
2013-12-6,72,68,66,67,65,64,99,91,81,30.00,29.89,9,4,19,0.30
2013-12-7,66,56,49,65,49,-100,97,80,59,30.32,29.93,3,1,10,0.26
2013-12-8,48,40,36,41,38,34,96,92,75,30.34,30.23,3,0,8,0.21
2013-12-9,45,40,35,44,39,34,98,97,96,30.25,30.02,2,0,5,0.82
2013-12-10,55,45,33,51,39,25,99,81,47,30.29,29.88,3,0,10,0.20
2013-12-11,52,36,26,35,28,24,96,77,39,30.42,30.27,4,1,12,0.01
2013-12-12,51,37,27,29,24,19,92,66,28,30.38,30.27,3,0,10,0.00
2013-12-13,51,36,24,34,26,21,92,69,33,30.36,30.22,4,0,11,0.00
2013-12-14,42,40,38,41,35,-100,98,88,68,30.24,29.79,3,0,8,1.17
2013-12-15,52,43,30,43,36,28,98,80,51,30.09,29.73,4,0,9,0.01
2013-12-16,60,40,27,37,31,26,97,74,36,30.16,30.06,8,1,15,0.01
2013-12-17,63,46,32,39,33,26,92,66,35,30.13,29.92,9,2,19,0.00
2013-12-18,54,40,28,29,25,21,87,60,27,30.26,30.04,3,0,8,0.00
2013-12-19,61,41,28,34,27,20,90,64,21,30.31,30.19,5,1,13,0.00
2013-12-20,60,48,35,46,39,31,91,74,51,30.22,30.11,4,1,11,0.00
2013-12-21,60,53,49,60,50,-100,99,94,88,30.12,29.96,2,0,7,0.10
2013-12-22,68,62,58,65,61,58,99,97,90,30.00,29.91,6,1,19,1.43
2013-12-23,58,54,45,58,51,35,99,91,71,30.12,29.93,2,0,8,0.91
2013-12-24,44,38,28,36,27,18,95,68,48,30.39,30.11,3,1,10,0.01
2013-12-25,41,29,22,24,19,12,89,70,33,30.52,30.37,3,0,9,0.00
2013-12-26,54,36,24,33,26,21,92,70,36,30.39,30.23,5,0,9,0.00
2013-12-27,53,37,27,32,27,19,95,72,34,30.45,30.32,2,0,7,0.00
2013-12-28,49,36,26,40,30,-100,96,83,51,30.40,30.08,2,0,6,0.41
2013-12-29,60,45,39,54,43,38,98,94,79,30.09,29.78,4,0,8,1.19
2013-12-30,53,42,34,45,39,33,99,91,70,30.10,29.93,2,0,8,0.02
2013-12-31,50,39,32,40,31,26,95,77,40,30.34,30.09,2,0,5,0.00
2014-1-1,49,38,29,37,31,26,94,79,51,30.36,30.12,3,0,7,0.00
2014-1-2,45,41,31,44,38,17,97,89,62,30.12,29.64,4,0,15,0.19